createdAt,value
2022-08-08T00:06:12.466Z,20.20
2022-08-08T00:08:53.781Z,20.05
2022-08-08T00:14:48.195Z,20.31
2022-08-08T00:18:02.338Z,19.74
2022-08-08T00:20:42.227Z,19.92
2022-08-08T00:23:40.671Z,19.67
2022-08-08T00:29:11.091Z,19.93
2022-08-08T00:35:18.643Z,20.24
2022-08-08T00:38:32.119Z,20.34
2022-08-08T00:41:54.516Z,20.28
2022-08-08T00:45:20.830Z,20.27
2022-08-08T00:51:57.674Z,20.42
2022-08-08T00:54:45.851Z,20.43
2022-08-08T00:57:56.992Z,20.33
2022-08-08T01:06:31.474Z,20.38
2022-08-08T01:09:41.177Z,20.39
2022-08-08T01:12:34.402Z,20.46
2022-08-08T01:15:44.049Z,20.36
2022-08-08T01:19:13.743Z,20.29
2022-08-08T01:22:35.273Z,20.36
2022-08-08T01:25:40.142Z,20.39
2022-08-08T01:28:34.653Z,20.35
2022-08-08T01:32:15.093Z,20.26
2022-08-08T01:35:17.929Z,20.35
2022-08-08T01:41:09.990Z,20.23
2022-08-08T01:43:50.795Z,20.22
2022-08-08T01:46:52.634Z,20.22
2022-08-08T01:49:38.733Z,19.89
2022-08-08T01:53:05.240Z,20.13
2022-08-08T01:56:04.358Z,20.05
2022-08-08T01:58:32.012Z,20.12
2022-08-08T02:01:17.581Z,20.12
2022-08-08T02:04:03.110Z,20.04
2022-08-08T02:06:55.892Z,20.06
2022-08-08T02:10:02.248Z,20.17
2022-08-08T02:12:34.379Z,20.06
2022-08-08T02:15:34.756Z,19.99
2022-08-08T02:18:14.502Z,19.99
2022-08-08T02:21:13.191Z,19.57
2022-08-08T02:23:47.649Z,19.74
2022-08-08T02:26:29.011Z,19.86
2022-08-08T02:29:41.755Z,19.79
2022-08-08T02:32:34.348Z,19.91
2022-08-08T02:36:03.869Z,19.83
2022-08-08T02:39:42.267Z,19.74
2022-08-08T02:42:36.184Z,19.27
2022-08-08T02:45:29.362Z,19.56
2022-08-08T02:48:51.528Z,19.52
2022-08-08T02:51:56.797Z,19.39
2022-08-08T02:54:41.559Z,18.39
2022-08-08T02:57:50.699Z,18.86
2022-08-08T03:01:15.013Z,19.24
2022-08-08T03:07:07.587Z,19.26
2022-08-08T03:10:31.631Z,19.26
2022-08-08T03:16:00.541Z,19.21
2022-08-08T03:16:37.242Z,19.09
2022-08-08T03:19:31.120Z,18.98
2022-08-08T03:22:01.691Z,18.91
2022-08-08T03:24:33.219Z,18.79
2022-08-08T03:27:09.943Z,18.89
2022-08-08T03:29:56.310Z,18.74
2022-08-08T03:32:52.820Z,18.77
2022-08-08T03:35:33.159Z,18.89
2022-08-08T03:38:58.248Z,18.78
2022-08-08T03:40:54.280Z,18.86
2022-08-08T03:43:23.313Z,18.73
2022-08-08T03:46:05.979Z,18.58
2022-08-08T03:49:31.088Z,18.57
2022-08-08T03:51:40.337Z,18.71
2022-08-08T03:54:15.658Z,18.86
2022-08-08T03:58:31.042Z,18.75
2022-08-08T04:00:07.223Z,18.59
2022-08-08T04:02:51.755Z,18.75
2022-08-08T04:05:28.283Z,18.62
2022-08-08T04:07:58.830Z,18.68
2022-08-08T04:10:31.945Z,18.83
2022-08-08T04:13:17.112Z,18.86
2022-08-08T04:16:03.621Z,18.92
2022-08-08T04:18:41.987Z,18.99
2022-08-08T04:21:13.823Z,19.08
2022-08-08T04:24:05.233Z,19.19
2022-08-08T04:26:56.703Z,19.32
2022-08-08T04:29:36.728Z,19.31
2022-08-08T04:32:07.556Z,19.48
2022-08-08T04:34:42.915Z,19.44
2022-08-08T04:37:26.411Z,19.42
2022-08-08T04:40:06.069Z,19.48
2022-08-08T04:42:37.213Z,19.61
2022-08-08T04:45:09.689Z,19.70
2022-08-08T04:47:43.474Z,19.24
2022-08-08T04:50:24.177Z,19.90
2022-08-08T04:52:58.736Z,19.71
2022-08-08T04:55:47.599Z,19.96
2022-08-08T04:58:19.674Z,19.99
2022-08-08T05:00:51.902Z,20.02
2022-08-08T05:04:07.956Z,20.01
2022-08-08T05:06:13.188Z,20.26
2022-08-08T05:08:51.948Z,20.51
2022-08-08T05:11:24.186Z,20.63
2022-08-08T05:14:02.017Z,20.71
2022-08-08T05:16:51.735Z,21.04
2022-08-08T05:20:11.422Z,20.77
2022-08-08T05:45:24.363Z,21.66
2022-08-08T05:58:05.761Z,22.67
2022-08-08T06:19:03.943Z,23.51
2022-08-08T06:21:51.935Z,23.13
2022-08-08T06:28:14.875Z,23.46
2022-08-08T06:30:48.259Z,23.38
2022-08-08T06:33:37.131Z,23.29
2022-08-08T06:36:20.204Z,23.21
2022-08-08T06:38:52.056Z,23.21
2022-08-08T06:41:21.735Z,23.19
2022-08-08T06:43:57.276Z,23.15
2022-08-08T06:46:25.888Z,23.18
2022-08-08T06:48:59.764Z,23.25
2022-08-08T06:51:52.339Z,23.38
2022-08-08T06:57:56.103Z,23.40
2022-08-08T07:00:44.591Z,23.15
2022-08-08T07:04:35.661Z,23.49
2022-08-08T07:06:27.014Z,23.36
2022-08-08T07:09:02.644Z,23.36
2022-08-08T07:11:50.806Z,23.54
2022-08-08T07:14:28.502Z,23.64
2022-08-08T07:17:09.331Z,23.57
2022-08-08T07:19:44.679Z,23.60
2022-08-08T07:22:19.554Z,23.75
2022-08-08T07:24:53.671Z,24.07
2022-08-08T07:27:35.534Z,24.01
2022-08-08T07:30:19.691Z,24.14
2022-08-08T07:32:59.208Z,24.38
2022-08-08T07:35:44.004Z,24.35
2022-08-08T07:38:39.066Z,24.29
2022-08-08T07:41:29.991Z,24.59
2022-08-08T07:47:06.568Z,24.44
2022-08-08T07:49:35.941Z,24.47
2022-08-08T07:52:13.345Z,24.71
2022-08-08T07:54:59.790Z,25.09
2022-08-08T07:57:48.638Z,25.32
2022-08-08T08:00:18.489Z,25.28
2022-08-08T08:02:55.991Z,25.42
2022-08-08T08:05:33.398Z,25.35
2022-08-08T08:08:04.729Z,25.10
2022-08-08T08:10:39.467Z,24.95
2022-08-08T08:14:07.634Z,24.93
2022-08-08T08:16:42.436Z,24.20
2022-08-08T08:19:23.041Z,24.26
2022-08-08T08:21:58.218Z,24.10
2022-08-08T08:24:32.074Z,24.41
2022-08-08T08:27:02.669Z,24.97
2022-08-08T08:29:43.154Z,24.74
2022-08-08T08:32:12.148Z,25.33
2022-08-08T08:34:48.463Z,25.46
2022-08-08T08:37:20.623Z,25.67
2022-08-08T08:40:01.920Z,25.95
2022-08-08T08:42:36.544Z,26.46
2022-08-08T08:45:16.452Z,26.87
2022-08-08T08:47:54.314Z,26.90
2022-08-08T08:50:33.547Z,27.02
2022-08-08T08:53:27.953Z,26.93
2022-08-08T08:55:55.939Z,26.92
2022-08-08T08:58:33.908Z,26.85
2022-08-08T09:01:10.091Z,26.74
2022-08-08T09:03:47.425Z,26.51
2022-08-08T09:06:28.266Z,26.24
2022-08-08T09:09:26.309Z,26.37
2022-08-08T09:12:01.504Z,26.55
2022-08-08T09:14:35.130Z,26.83
2022-08-08T09:17:17.474Z,26.87
2022-08-08T09:22:04.771Z,26.50
2022-08-08T09:22:43.913Z,26.96
2022-08-08T09:25:15.125Z,27.39
2022-08-08T09:27:57.272Z,26.93
2022-08-08T09:34:16.061Z,26.84
2022-08-08T09:37:28.787Z,26.57
2022-08-08T09:46:16.923Z,27.36
2022-08-08T10:31:01.215Z,26.45
2022-08-08T11:02:05.761Z,28.92
2022-08-08T11:08:31.650Z,31.16
2022-08-08T11:11:59.676Z,30.75
2022-08-08T11:14:16.029Z,30.13
2022-08-08T11:24:29.572Z,28.00
2022-08-08T11:27:19.352Z,27.65
2022-08-08T11:29:58.197Z,27.73
2022-08-08T11:45:11.997Z,27.21
2022-08-08T12:01:32.690Z,26.63
2022-08-08T12:07:17.972Z,28.28
2022-08-08T12:10:08.810Z,28.63
2022-08-08T12:13:12.150Z,29.95
2022-08-08T12:16:30.802Z,29.37
2022-08-08T12:26:36.190Z,29.48
2022-08-08T12:29:46.620Z,28.66
2022-08-08T12:32:51.039Z,29.08
2022-08-08T12:35:38.947Z,28.92
2022-08-08T12:38:38.340Z,29.51
2022-08-08T12:42:07.121Z,29.49
2022-08-08T12:48:37.954Z,28.39
2022-08-08T12:54:47.431Z,30.22
2022-08-08T13:03:55.192Z,28.27
2022-08-08T13:06:40.409Z,28.08
2022-08-08T13:09:27.219Z,28.11
2022-08-08T13:12:36.806Z,29.99
2022-08-08T13:15:10.105Z,30.55
2022-08-08T13:18:10.170Z,30.03
2022-08-08T13:20:27.777Z,29.35
2022-08-08T13:25:50.168Z,28.11
2022-08-08T13:31:27.516Z,26.96
2022-08-08T13:34:00.902Z,26.80
2022-08-08T13:43:12.308Z,29.03
2022-08-08T13:45:58.724Z,29.68
2022-08-08T13:52:10.549Z,30.22
2022-08-08T13:54:53.969Z,31.03
2022-08-08T14:06:37.142Z,28.65
2022-08-08T14:12:17.909Z,29.07
2022-08-08T14:14:48.020Z,29.05
2022-08-08T14:17:22.650Z,29.16
2022-08-08T14:20:16.742Z,29.22
2022-08-08T14:22:57.604Z,29.40
2022-08-08T14:25:28.176Z,28.98
2022-08-08T14:28:12.092Z,28.23
2022-08-08T14:30:42.324Z,28.06
2022-08-08T14:33:27.392Z,27.90
2022-08-08T14:36:06.537Z,27.05
2022-08-08T14:38:52.465Z,26.62
2022-08-08T14:41:53.651Z,26.14
2022-08-08T14:44:24.910Z,27.23
2022-08-08T14:47:00.945Z,28.78
2022-08-08T14:49:37.932Z,28.70
2022-08-08T14:52:28.465Z,27.80
2022-08-08T14:54:59.419Z,27.33
2022-08-08T14:58:02.734Z,27.41
2022-08-08T15:00:38.354Z,26.89
2022-08-08T15:03:15.558Z,26.71
2022-08-08T15:05:53.724Z,26.86
2022-08-08T15:08:34.987Z,26.32
2022-08-08T15:11:20.529Z,26.10
2022-08-08T15:16:35.225Z,26.21
2022-08-08T15:19:10.369Z,26.63
2022-08-08T15:21:48.884Z,26.53
2022-08-08T15:24:19.071Z,25.24
2022-08-08T15:26:53.381Z,25.35
2022-08-08T15:29:24.578Z,24.86
2022-08-08T15:32:19.288Z,24.52
2022-08-08T15:34:53.801Z,24.39
2022-08-08T15:37:33.905Z,24.26
2022-08-08T15:40:11.282Z,23.87
2022-08-08T15:43:18.681Z,23.38
2022-08-08T15:48:47.351Z,23.12
2022-08-08T15:51:16.877Z,22.93
2022-08-08T15:53:52.269Z,22.79
2022-08-08T15:56:20.885Z,21.93
2022-08-08T15:59:06.865Z,22.19
2022-08-08T16:01:40.908Z,22.83
2022-08-08T16:05:14.334Z,22.29
2022-08-08T16:16:41.349Z,23.85
2022-08-08T16:19:12.578Z,23.66
2022-08-08T16:21:43.558Z,24.42
2022-08-08T16:24:47.150Z,25.24
2022-08-08T16:27:19.203Z,25.59
2022-08-08T16:30:12.983Z,26.25
2022-08-08T16:35:41.977Z,26.95
2022-08-08T16:38:16.462Z,26.77
2022-08-08T16:41:02.023Z,26.78
2022-08-08T16:43:48.940Z,26.77
2022-08-08T16:46:39.004Z,26.14
2022-08-08T16:49:09.455Z,25.10
2022-08-08T16:55:01.764Z,23.93
2022-08-08T16:55:02.050Z,24.61
2022-08-08T16:57:43.618Z,23.57
2022-08-08T17:00:11.311Z,23.29
2022-08-08T17:02:54.968Z,23.13
2022-08-08T17:05:23.437Z,23.14
2022-08-08T17:08:10.901Z,23.14
2022-08-08T17:10:53.494Z,23.05
2022-08-08T17:13:41.262Z,23.00
2022-08-08T17:16:17.443Z,22.89
2022-08-08T17:18:51.104Z,22.63
2022-08-08T17:21:21.401Z,22.33
2022-08-08T17:23:58.338Z,22.16
2022-08-08T17:26:30.666Z,22.06
2022-08-08T17:29:04.352Z,21.95
2022-08-08T17:31:44.924Z,21.95
2022-08-08T17:34:48.334Z,21.84
2022-08-08T17:37:06.685Z,21.68
2022-08-08T17:40:02.980Z,21.57
2022-08-08T17:42:28.475Z,21.48
2022-08-08T17:44:58.652Z,21.37
2022-08-08T17:47:40.379Z,21.32
2022-08-08T17:50:10.789Z,21.08
2022-08-08T17:52:43.456Z,21.02
2022-08-08T17:56:03.711Z,21.09
2022-08-08T17:58:33.231Z,20.96
2022-08-08T18:01:02.100Z,20.86
2022-08-08T18:03:40.929Z,20.91
2022-08-08T18:06:31.154Z,20.86
2022-08-08T18:09:01.970Z,20.71
2022-08-08T18:11:32.654Z,20.81
2022-08-08T18:14:05.771Z,20.75
2022-08-08T18:16:54.340Z,20.75
2022-08-08T18:19:25.000Z,20.84
2022-08-08T18:22:01.914Z,20.82
2022-08-08T18:24:31.928Z,20.81
2022-08-08T18:27:06.216Z,20.73
2022-08-08T18:29:46.400Z,20.77
2022-08-08T18:32:17.019Z,20.75
2022-08-08T18:34:50.061Z,20.64
2022-08-08T18:37:34.735Z,20.59
2022-08-08T18:40:03.549Z,20.62
2022-08-08T18:42:32.470Z,20.61
2022-08-08T18:45:09.342Z,20.60
2022-08-08T18:47:51.059Z,20.50
2022-08-08T18:50:21.279Z,20.59
2022-08-08T18:52:52.861Z,20.40
2022-08-08T18:55:23.071Z,20.51
2022-08-08T18:57:56.881Z,20.53
2022-08-08T19:00:25.385Z,20.52
2022-08-08T19:02:58.760Z,20.39
2022-08-08T19:05:45.057Z,20.43
2022-08-08T19:08:25.015Z,20.43
2022-08-08T19:10:58.898Z,20.39
2022-08-08T19:13:53.013Z,20.42
2022-08-08T19:16:19.339Z,20.38
2022-08-08T19:19:00.116Z,20.36
2022-08-08T19:21:49.476Z,20.33
2022-08-08T19:24:49.558Z,20.27
2022-08-08T19:27:08.928Z,20.25
2022-08-08T19:29:40.854Z,20.32
2022-08-08T19:32:21.980Z,20.26
2022-08-08T19:34:51.787Z,20.31
2022-08-08T19:37:42.069Z,20.33
2022-08-08T19:40:14.690Z,20.33
2022-08-08T19:42:44.928Z,20.31
2022-08-08T19:45:14.679Z,20.39
2022-08-08T19:48:03.362Z,20.56
2022-08-08T19:50:33.217Z,20.62
2022-08-08T19:53:04.440Z,20.69
2022-08-08T19:55:53.045Z,20.63
2022-08-08T19:58:23.974Z,20.56
2022-08-08T20:00:53.578Z,20.50
2022-08-08T20:04:00.436Z,20.38
2022-08-08T20:06:14.777Z,20.41
2022-08-08T20:08:48.522Z,20.26
2022-08-08T20:11:18.761Z,20.02
2022-08-08T20:14:12.579Z,20.15
2022-08-08T20:16:40.890Z,20.28
2022-08-08T20:19:09.975Z,20.21
2022-08-08T20:21:39.588Z,20.23
2022-08-08T20:24:10.844Z,20.20
2022-08-08T20:26:41.807Z,20.12
2022-08-08T20:29:16.423Z,20.17
2022-08-08T20:31:47.206Z,20.09
2022-08-08T20:34:33.852Z,20.06
2022-08-08T20:37:07.818Z,20.03
2022-08-08T20:39:41.629Z,19.99
2022-08-08T20:42:28.727Z,19.89
2022-08-08T20:44:59.100Z,19.98
2022-08-08T20:47:36.126Z,19.96
2022-08-08T20:50:10.225Z,19.81
2022-08-08T20:52:39.951Z,19.75
2022-08-08T20:55:22.356Z,19.81
2022-08-08T20:57:57.962Z,19.78
2022-08-08T21:00:28.902Z,19.68
2022-08-08T21:03:02.415Z,19.70
2022-08-08T21:05:32.764Z,19.64
2022-08-08T21:08:36.146Z,19.64
2022-08-08T21:11:08.300Z,19.49
2022-08-08T21:13:41.093Z,19.54
2022-08-08T21:16:20.349Z,19.58
2022-08-08T21:18:57.944Z,19.52
2022-08-08T21:21:39.790Z,19.53
2022-08-08T21:24:25.619Z,19.71
2022-08-08T21:27:00.417Z,19.91
2022-08-08T21:30:02.730Z,19.91
2022-08-08T21:32:25.117Z,20.04
2022-08-08T21:34:56.881Z,20.15
2022-08-08T21:37:55.707Z,20.15
2022-08-08T21:40:35.895Z,20.24
2022-08-08T21:43:08.026Z,20.15
2022-08-08T21:48:02.573Z,20.26
2022-08-08T21:48:30.156Z,20.28
2022-08-08T21:51:14.762Z,20.27
2022-08-08T21:54:36.226Z,20.18
2022-08-08T21:56:42.049Z,20.01
2022-08-08T21:59:15.298Z,20.07
2022-08-08T22:01:44.551Z,19.95
2022-08-08T22:04:21.035Z,20.01
2022-08-08T22:06:50.236Z,19.93
2022-08-08T22:09:19.278Z,20.00
2022-08-08T22:11:59.420Z,19.99
2022-08-08T22:14:39.193Z,19.97
2022-08-08T22:17:12.003Z,19.90
2022-08-08T22:20:10.876Z,19.77
2022-08-08T22:22:38.138Z,19.57
2022-08-08T22:25:12.354Z,19.43
2022-08-08T22:28:04.353Z,19.40
2022-08-08T22:30:52.896Z,19.19
2022-08-08T22:34:12.380Z,19.26
2022-08-08T22:36:12.556Z,19.23
2022-08-08T22:38:48.620Z,19.05
2022-08-08T22:41:21.402Z,19.14
2022-08-08T22:44:05.545Z,19.23
2022-08-08T22:46:38.972Z,19.27
2022-08-08T22:49:10.007Z,19.26
2022-08-08T22:51:42.188Z,19.36
2022-08-08T22:54:31.461Z,19.39
2022-08-08T22:57:11.518Z,19.28
2022-08-08T22:59:58.725Z,19.26
2022-08-08T23:02:31.675Z,19.37
2022-08-08T23:05:04.993Z,19.39
2022-08-08T23:07:50.886Z,19.40
2022-08-08T23:10:25.135Z,19.39
2022-08-08T23:12:54.487Z,19.29
2022-08-08T23:16:40.923Z,19.41
2022-08-08T23:18:14.362Z,19.37
2022-08-08T23:20:43.945Z,19.50
2022-08-08T23:23:13.461Z,19.41
2022-08-08T23:25:47.793Z,19.51
2022-08-08T23:28:19.188Z,19.45
2022-08-08T23:30:48.354Z,19.49
2022-08-08T23:33:20.963Z,19.49
2022-08-08T23:36:09.217Z,19.52
2022-08-08T23:38:44.086Z,19.58
2022-08-08T23:41:23.324Z,19.62
2022-08-08T23:43:56.084Z,19.61
2022-08-08T23:49:02.372Z,19.61
2022-08-08T23:49:18.936Z,19.62
2022-08-08T23:52:06.791Z,19.49
2022-08-08T23:54:42.706Z,19.37
2022-08-08T23:57:27.864Z,19.24
